sensor_id;sensor_type;location;lat;lon;timestamp;pressure;altitude;pressure_sealevel;temperature;humidity
40920;BME280;26652;50.280;19.026;2023-05-02T00:00:53;98261.09;;;12.25;61.33
40920;BME280;26652;50.280;19.026;2023-05-02T00:03:05;98260.72;;;12.34;62.69
40920;BME280;26652;50.280;19.026;2023-05-02T00:05:17;98256.56;;;12.27;63.92
40920;BME280;26652;50.280;19.026;2023-05-02T00:07:30;98256.56;;;12.27;62.78
40920;BME280;26652;50.280;19.026;2023-05-02T00:09:48;98241.06;;;12.22;63.59
40920;BME280;26652;50.280;19.026;2023-05-02T00:12:01;98257.72;;;12.18;65.07
40920;BME280;26652;50.280;19.026;2023-05-02T00:14:12;98253.00;;;12.15;64.23
40920;BME280;26652;50.280;19.026;2023-05-02T00:16:21;98249.25;;;12.10;63.47
40920;BME280;26652;50.280;19.026;2023-05-02T00:18:39;98250.03;;;12.11;61.72
40920;BME280;26652;50.280;19.026;2023-05-02T00:20:48;98251.44;;;12.20;62.16
40920;BME280;26652;50.280;19.026;2023-05-02T00:22:59;98258.13;;;12.21;62.74
40920;BME280;26652;50.280;19.026;2023-05-02T00:25:08;98247.91;;;12.15;63.85
40920;BME280;26652;50.280;19.026;2023-05-02T00:27:22;98255.34;;;12.09;65.28
40920;BME280;26652;50.280;19.026;2023-05-02T00:29:31;98249.63;;;12.01;65.25
40920;BME280;26652;50.280;19.026;2023-05-02T00:31:47;98244.91;;;12.04;65.48
40920;BME280;26652;50.280;19.026;2023-05-02T00:33:55;98247.69;;;12.09;63.33
40920;BME280;26652;50.280;19.026;2023-05-02T00:36:17;98242.56;;;12.03;61.81
40920;BME280;26652;50.280;19.026;2023-05-02T00:38:23;98245.50;;;12.00;61.80
40920;BME280;26652;50.280;19.026;2023-05-02T00:40:50;98247.47;;;12.04;61.75
40920;BME280;26652;50.280;19.026;2023-05-02T00:42:59;98248.06;;;12.06;61.77
40920;BME280;26652;50.280;19.026;2023-05-02T00:45:13;98245.31;;;12.01;61.90
40920;BME280;26652;50.280;19.026;2023-05-02T00:47:21;98248.63;;;11.95;62.23
40920;BME280;26652;50.280;19.026;2023-05-02T00:49:32;98244.50;;;12.01;62.26
40920;BME280;26652;50.280;19.026;2023-05-02T00:51:45;98248.66;;;12.08;62.26
40920;BME280;26652;50.280;19.026;2023-05-02T00:54:00;98247.87;;;12.08;62.27
40920;BME280;26652;50.280;19.026;2023-05-02T00:56:09;98242.78;;;12.08;62.39
40920;BME280;26652;50.280;19.026;2023-05-02T00:58:40;98243.19;;;12.11;62.48
40920;BME280;26652;50.280;19.026;2023-05-02T01:06:50;98244.22;;;12.30;62.67
40920;BME280;26652;50.280;19.026;2023-05-02T01:09:17;98234.56;;;12.19;62.67
40920;BME280;26652;50.280;19.026;2023-05-02T01:11:47;98240.66;;;12.18;63.25
40920;BME280;26652;50.280;19.026;2023-05-02T01:13:59;98233.19;;;12.17;63.43
40920;BME280;26652;50.280;19.026;2023-05-02T01:16:10;98237.53;;;12.23;63.35
40920;BME280;26652;50.280;19.026;2023-05-02T01:18:32;98242.03;;;12.21;63.74
40920;BME280;26652;50.280;19.026;2023-05-02T01:20:43;98244.38;;;12.22;63.78
40920;BME280;26652;50.280;19.026;2023-05-02T01:22:59;98245.78;;;12.25;64.15
40920;BME280;26652;50.280;19.026;2023-05-02T01:30:14;98245.97;;;12.23;64.21
40920;BME280;26652;50.280;19.026;2023-05-02T01:32:23;98239.47;;;12.14;64.58
40920;BME280;26652;50.280;19.026;2023-05-02T01:34:32;98243.00;;;12.13;64.57
40920;BME280;26652;50.280;19.026;2023-05-02T01:36:49;98242.78;;;12.15;64.86
40920;BME280;26652;50.280;19.026;2023-05-02T01:38:56;98232.41;;;12.16;64.90
40920;BME280;26652;50.280;19.026;2023-05-02T01:41:06;98240.81;;;12.10;65.44
40920;BME280;26652;50.280;19.026;2023-05-02T01:43:15;98241.19;;;12.07;65.12
40920;BME280;26652;50.280;19.026;2023-05-02T01:45:26;98238.88;;;12.12;65.08
40920;BME280;26652;50.280;19.026;2023-05-02T01:47:34;98234.75;;;12.11;64.92
40920;BME280;26652;50.280;19.026;2023-05-02T01:49:43;98238.66;;;12.07;65.49
40920;BME280;26652;50.280;19.026;2023-05-02T01:51:51;98234.34;;;12.07;65.04
40920;BME280;26652;50.280;19.026;2023-05-02T01:54:07;98237.28;;;12.11;65.00
40920;BME280;26652;50.280;19.026;2023-05-02T01:56:13;98232.78;;;12.13;64.66
40920;BME280;26652;50.280;19.026;2023-05-02T01:58:35;98222.97;;;12.10;64.74
40920;BME280;26652;50.280;19.026;2023-05-02T02:00:43;98227.28;;;12.09;64.51
40920;BME280;26652;50.280;19.026;2023-05-02T02:02:55;98229.84;;;12.16;64.31
40920;BME280;26652;50.280;19.026;2023-05-02T02:05:04;98231.22;;;12.19;64.27
40920;BME280;26652;50.280;19.026;2023-05-02T02:07:15;98236.94;;;12.27;64.42
40920;BME280;26652;50.280;19.026;2023-05-02T02:09:23;98233.59;;;12.27;63.95
40920;BME280;26652;50.280;19.026;2023-05-02T02:11:51;98240.09;;;12.29;63.94
40920;BME280;26652;50.280;19.026;2023-05-02T02:14:05;98239.91;;;12.37;63.71
40920;BME280;26652;50.280;19.026;2023-05-02T02:16:20;98229.69;;;12.37;63.68
40920;BME280;26652;50.280;19.026;2023-05-02T02:18:28;98225.00;;;12.34;63.62
40920;BME280;26652;50.280;19.026;2023-05-02T02:20:42;98231.47;;;12.43;63.57
40920;BME280;26652;50.280;19.026;2023-05-02T02:22:50;98236.78;;;12.42;63.48
40920;BME280;26652;50.280;19.026;2023-05-02T02:25:02;98225.41;;;12.44;63.28
40920;BME280;26652;50.280;19.026;2023-05-02T02:27:08;98231.28;;;12.38;63.82
40920;BME280;26652;50.280;19.026;2023-05-02T02:29:26;98239.53;;;12.47;63.18
40920;BME280;26652;50.280;19.026;2023-05-02T02:31:35;98238.72;;;12.53;62.77
40920;BME280;26652;50.280;19.026;2023-05-02T02:33:58;98240.91;;;12.56;62.58
40920;BME280;26652;50.280;19.026;2023-05-02T02:36:29;98235.22;;;12.61;62.29
40920;BME280;26652;50.280;19.026;2023-05-02T02:39:01;98239.13;;;12.57;62.19
40920;BME280;26652;50.280;19.026;2023-05-02T02:41:15;98236.97;;;12.54;62.50
40920;BME280;26652;50.280;19.026;2023-05-02T02:43:49;98234.41;;;12.54;62.28
40920;BME280;26652;50.280;19.026;2023-05-02T02:46:14;98229.50;;;12.52;62.59
40920;BME280;26652;50.280;19.026;2023-05-02T02:48:37;98234.22;;;12.49;62.40
40920;BME280;26652;50.280;19.026;2023-05-02T02:53:19;98235.81;;;12.63;61.84
40920;BME280;26652;50.280;19.026;2023-05-02T02:55:49;98232.47;;;12.62;61.30
40920;BME280;26652;50.280;19.026;2023-05-02T02:58:20;98239.13;;;12.63;61.15
40920;BME280;26652;50.280;19.026;2023-05-02T03:00:28;98242.88;;;12.74;60.89
40920;BME280;26652;50.280;19.026;2023-05-02T03:02:42;98242.69;;;12.75;60.87
40920;BME280;26652;50.280;19.026;2023-05-02T03:04:51;98249.75;;;12.73;60.45
40920;BME280;26652;50.280;19.026;2023-05-02T03:07:03;98243.25;;;12.64;60.78
40920;BME280;26652;50.280;19.026;2023-05-02T03:09:15;98251.31;;;12.74;60.18
40920;BME280;26652;50.280;19.026;2023-05-02T03:11:33;98244.84;;;12.72;60.23
40920;BME280;26652;50.280;19.026;2023-05-02T03:13:47;98243.06;;;12.66;60.60
40920;BME280;26652;50.280;19.026;2023-05-02T03:16:36;98249.75;;;12.60;60.84
40920;BME280;26652;50.280;19.026;2023-05-02T03:18:42;98245.22;;;12.62;60.54
40920;BME280;26652;50.280;19.026;2023-05-02T03:21:02;98242.47;;;12.57;60.78
40920;BME280;26652;50.280;19.026;2023-05-02T03:23:15;98248.75;;;12.55;60.22
40920;BME280;26652;50.280;19.026;2023-05-02T03:25:26;98247.75;;;12.49;60.52
40920;BME280;26652;50.280;19.026;2023-05-02T03:27:35;98242.06;;;12.54;60.55
40920;BME280;26652;50.280;19.026;2023-05-02T03:29:49;98240.69;;;12.51;60.15
40920;BME280;26652;50.280;19.026;2023-05-02T03:32:07;98240.09;;;12.36;60.06
40920;BME280;26652;50.280;19.026;2023-05-02T03:34:19;98238.94;;;12.45;59.91
40920;BME280;26652;50.280;19.026;2023-05-02T03:36:27;98242.06;;;12.54;59.75
40920;BME280;26652;50.280;19.026;2023-05-02T03:38:58;98236.78;;;12.55;59.44
40920;BME280;26652;50.280;19.026;2023-05-02T03:41:10;98245.63;;;12.59;58.86
40920;BME280;26652;50.280;19.026;2023-05-02T03:43:29;98245.22;;;12.62;58.91
40920;BME280;26652;50.280;19.026;2023-05-02T03:45:35;98244.25;;;12.63;58.69
40920;BME280;26652;50.280;19.026;2023-05-02T03:47:51;98244.62;;;12.60;58.62
40920;BME280;26652;50.280;19.026;2023-05-02T03:50:05;98238.75;;;12.60;58.51
40920;BME280;26652;50.280;19.026;2023-05-02T03:52:22;98233.03;;;12.58;58.74
40920;BME280;26652;50.280;19.026;2023-05-02T03:54:34;98236.59;;;12.63;58.40
40920;BME280;26652;50.280;19.026;2023-05-02T03:56:59;98238.94;;;12.71;58.27
40920;BME280;26652;50.280;19.026;2023-05-02T03:59:15;98243.09;;;12.79;58.21
40920;BME280;26652;50.280;19.026;2023-05-02T04:01:48;98243.28;;;12.91;57.57
40920;BME280;26652;50.280;19.026;2023-05-02T04:03:57;98242.50;;;12.97;57.81
40920;BME280;26652;50.280;19.026;2023-05-02T04:06:20;98248.97;;;12.99;57.69
40920;BME280;26652;50.280;19.026;2023-05-02T04:08:29;98247.59;;;13.03;57.67
40920;BME280;26652;50.280;19.026;2023-05-02T04:10:51;98251.12;;;13.09;57.86
40920;BME280;26652;50.280;19.026;2023-05-02T04:13:03;98254.91;;;13.20;57.15
40920;BME280;26652;50.280;19.026;2023-05-02T04:15:28;98263.16;;;13.28;56.91
40920;BME280;26652;50.280;19.026;2023-05-02T04:17:38;98261.56;;;13.27;56.45
40920;BME280;26652;50.280;19.026;2023-05-02T04:19:56;98262.16;;;13.29;58.12
40920;BME280;26652;50.280;19.026;2023-05-02T04:22:04;98261.75;;;13.46;56.63
40920;BME280;26652;50.280;19.026;2023-05-02T04:24:15;98263.28;;;13.53;56.37
40920;BME280;26652;50.280;19.026;2023-05-02T04:26:30;98266.66;;;13.47;56.03
40920;BME280;26652;50.280;19.026;2023-05-02T04:28:45;98263.72;;;13.50;56.79
40920;BME280;26652;50.280;19.026;2023-05-02T04:30:57;98270.16;;;13.59;56.93
40920;BME280;26652;50.280;19.026;2023-05-02T04:33:12;98268.38;;;13.66;55.70
40920;BME280;26652;50.280;19.026;2023-05-02T04:35:20;98275.81;;;13.74;58.51
40920;BME280;26652;50.280;19.026;2023-05-02T04:37:51;98264.19;;;13.79;56.99
40920;BME280;26652;50.280;19.026;2023-05-02T04:40:02;98286.16;;;14.06;55.54
40920;BME280;26652;50.280;19.026;2023-05-02T04:42:12;98279.37;;;14.25;54.48
40920;BME280;26652;50.280;19.026;2023-05-02T04:44:21;98282.88;;;14.30;54.71
40920;BME280;26652;50.280;19.026;2023-05-02T04:46:45;98274.62;;;14.28;54.75
40920;BME280;26652;50.280;19.026;2023-05-02T04:48:53;98277.19;;;14.28;55.17
40920;BME280;26652;50.280;19.026;2023-05-02T04:51:04;98277.78;;;14.30;55.17
40920;BME280;26652;50.280;19.026;2023-05-02T04:53:09;98279.50;;;14.36;54.26
40920;BME280;26652;50.280;19.026;2023-05-02T04:55:27;98279.50;;;14.43;53.95
40920;BME280;26652;50.280;19.026;2023-05-02T04:57:35;98286.63;;;14.34;53.70
40920;BME280;26652;50.280;19.026;2023-05-02T04:59:49;98286.25;;;14.24;53.33
40920;BME280;26652;50.280;19.026;2023-05-02T05:02:04;98284.34;;;14.13;53.93
40920;BME280;26652;50.280;19.026;2023-05-02T05:04:21;98289.09;;;14.10;53.62
40920;BME280;26652;50.280;19.026;2023-05-02T05:06:30;98288.09;;;14.11;53.95
40920;BME280;26652;50.280;19.026;2023-05-02T05:08:48;98286.56;;;14.03;53.75
40920;BME280;26652;50.280;19.026;2023-05-02T05:11:02;98281.72;;;14.26;53.79
40920;BME280;26652;50.280;19.026;2023-05-02T05:13:24;98293.06;;;14.50;53.72
40920;BME280;26652;50.280;19.026;2023-05-02T05:15:49;98289.91;;;14.48;52.95
40920;BME280;26652;50.280;19.026;2023-05-02T05:18:03;98300.97;;;14.73;54.08
40920;BME280;26652;50.280;19.026;2023-05-02T05:20:17;98286.97;;;14.76;53.41
40920;BME280;26652;50.280;19.026;2023-05-02T05:22:36;98296.91;;;14.91;52.67
40920;BME280;26652;50.280;19.026;2023-05-02T05:24:41;98294.47;;;15.02;53.55
40920;BME280;26652;50.280;19.026;2023-05-02T05:26:57;98298.34;;;15.12;52.49
40920;BME280;26652;50.280;19.026;2023-05-02T05:29:05;98301.91;;;15.11;52.43
40920;BME280;26652;50.280;19.026;2023-05-02T05:31:19;98297.72;;;15.16;51.29
40920;BME280;26652;50.280;19.026;2023-05-02T05:33:45;98307.91;;;15.23;51.54
40920;BME280;26652;50.280;19.026;2023-05-02T05:36:09;98304.16;;;15.25;50.49
40920;BME280;26652;50.280;19.026;2023-05-02T05:38:18;98308.16;;;15.40;50.22
40920;BME280;26652;50.280;19.026;2023-05-02T05:40:31;98301.47;;;15.38;50.01
40920;BME280;26652;50.280;19.026;2023-05-02T05:42:39;98305.69;;;15.51;49.76
40920;BME280;26652;50.280;19.026;2023-05-02T05:44:58;98301.56;;;15.68;49.55
40920;BME280;26652;50.280;19.026;2023-05-02T05:47:07;98305.44;;;15.78;49.34
40920;BME280;26652;50.280;19.026;2023-05-02T05:49:19;98309.44;;;15.92;49.13
40920;BME280;26652;50.280;19.026;2023-05-02T05:51:37;98313.50;;;15.99;48.56
40920;BME280;26652;50.280;19.026;2023-05-02T05:53:51;98314.84;;;16.02;48.62
40920;BME280;26652;50.280;19.026;2023-05-02T05:56:08;98315.13;;;16.12;48.49
40920;BME280;26652;50.280;19.026;2023-05-02T05:58:19;98312.69;;;16.17;48.63
40920;BME280;26652;50.280;19.026;2023-05-02T06:00:27;98305.84;;;16.11;47.91
40920;BME280;26652;50.280;19.026;2023-05-02T06:02:39;98314.03;;;16.20;48.29
40920;BME280;26652;50.280;19.026;2023-05-02T06:04:47;98312.69;;;16.17;48.75
40920;BME280;26652;50.280;19.026;2023-05-02T06:06:59;98314.44;;;16.35;48.46
40920;BME280;26652;50.280;19.026;2023-05-02T06:09:07;98322.25;;;16.28;48.40
40920;BME280;26652;50.280;19.026;2023-05-02T06:11:27;98320.28;;;16.42;48.55
40920;BME280;26652;50.280;19.026;2023-05-02T06:13:36;98320.78;;;16.51;47.83
40920;BME280;26652;50.280;19.026;2023-05-02T06:15:49;98321.38;;;16.64;47.62
40920;BME280;26652;50.280;19.026;2023-05-02T06:18:06;98322.16;;;16.65;47.65
40920;BME280;26652;50.280;19.026;2023-05-02T06:20:28;98311.75;;;16.60;47.94
40920;BME280;26652;50.280;19.026;2023-05-02T06:22:46;98323.78;;;16.48;48.46
40920;BME280;26652;50.280;19.026;2023-05-02T06:25:00;98326.00;;;16.74;48.67
40920;BME280;26652;50.280;19.026;2023-05-02T06:27:12;98330.50;;;16.90;48.86
40920;BME280;26652;50.280;19.026;2023-05-02T06:29:24;98337.91;;;16.98;47.71
40920;BME280;26652;50.280;19.026;2023-05-02T06:31:32;98340.72;;;17.09;48.52
40920;BME280;26652;50.280;19.026;2023-05-02T06:33:48;98342.09;;;17.23;48.73
40920;BME280;26652;50.280;19.026;2023-05-02T06:35:57;98339.19;;;17.31;47.90
40920;BME280;26652;50.280;19.026;2023-05-02T06:38:08;98343.88;;;17.34;48.19
40920;BME280;26652;50.280;19.026;2023-05-02T06:40:26;98349.38;;;17.38;47.99
40920;BME280;26652;50.280;19.026;2023-05-02T06:42:40;98355.19;;;17.56;48.34
40920;BME280;26652;50.280;19.026;2023-05-02T06:44:47;98356.88;;;17.62;47.56
40920;BME280;26652;50.280;19.026;2023-05-02T06:47:03;98363.16;;;17.67;48.25
40920;BME280;26652;50.280;19.026;2023-05-02T06:49:09;98362.78;;;17.86;48.27
40920;BME280;26652;50.280;19.026;2023-05-02T06:51:22;98369.94;;;18.08;47.73
40920;BME280;26652;50.280;19.026;2023-05-02T06:53:32;98365.31;;;18.21;47.48
40920;BME280;26652;50.280;19.026;2023-05-02T06:55:44;98370.87;;;18.42;46.19
40920;BME280;26652;50.280;19.026;2023-05-02T06:57:50;98369.91;;;18.59;46.14
40920;BME280;26652;50.280;19.026;2023-05-02T07:00:04;98371.78;;;18.92;46.79
40920;BME280;26652;50.280;19.026;2023-05-02T07:02:12;98369.94;;;19.38;45.74
40920;BME280;26652;50.280;19.026;2023-05-02T07:04:24;98378.06;;;19.64;44.48
40920;BME280;26652;50.280;19.026;2023-05-02T07:06:40;98386.00;;;19.79;44.51
40920;BME280;26652;50.280;19.026;2023-05-02T07:08:51;98392.50;;;20.20;43.04
40920;BME280;26652;50.280;19.026;2023-05-02T07:10:59;98388.28;;;20.58;43.51
40920;BME280;26652;50.280;19.026;2023-05-02T07:13:18;98392.22;;;21.19;43.90
40920;BME280;26652;50.280;19.026;2023-05-02T07:15:27;98391.66;;;21.44;42.11
40920;BME280;26652;50.280;19.026;2023-05-02T07:17:55;98405.34;;;21.76;41.88
40920;BME280;26652;50.280;19.026;2023-05-02T07:20:11;98401.75;;;21.45;40.39
40920;BME280;26652;50.280;19.026;2023-05-02T07:22:29;98409.03;;;21.48;41.96
40920;BME280;26652;50.280;19.026;2023-05-02T07:24:40;98401.44;;;21.74;41.55
40920;BME280;26652;50.280;19.026;2023-05-02T07:26:55;98404.31;;;21.77;40.36
40920;BME280;26652;50.280;19.026;2023-05-02T07:29:09;98407.19;;;21.86;43.02
40920;BME280;26652;50.280;19.026;2023-05-02T07:31:20;98400.37;;;21.33;40.34
40920;BME280;26652;50.280;19.026;2023-05-02T07:33:29;98410.84;;;20.62;41.30
40920;BME280;26652;50.280;19.026;2023-05-02T07:35:44;98414.81;;;20.48;42.38
40920;BME280;26652;50.280;19.026;2023-05-02T07:37:53;98420.47;;;20.67;41.90
40920;BME280;26652;50.280;19.026;2023-05-02T07:40:06;98421.56;;;21.03;41.55
40920;BME280;26652;50.280;19.026;2023-05-02T07:42:14;98414.63;;;20.54;41.88
40920;BME280;26652;50.280;19.026;2023-05-02T07:44:28;98415.28;;;20.67;42.05
40920;BME280;26652;50.280;19.026;2023-05-02T07:46:41;98418.09;;;21.19;42.70
40920;BME280;26652;50.280;19.026;2023-05-02T07:48:55;98417.69;;;21.27;41.21
40920;BME280;26652;50.280;19.026;2023-05-02T07:51:11;98425.13;;;21.50;41.18
40920;BME280;26652;50.280;19.026;2023-05-02T07:53:23;98421.03;;;21.60;41.00
40920;BME280;26652;50.280;19.026;2023-05-02T07:55:35;98428.34;;;21.68;40.77
40920;BME280;26652;50.280;19.026;2023-05-02T07:57:49;98429.47;;;21.82;41.30
40920;BME280;26652;50.280;19.026;2023-05-02T08:00:05;98428.72;;;21.92;40.49
40920;BME280;26652;50.280;19.026;2023-05-02T08:02:20;98418.72;;;21.63;40.58
40920;BME280;26652;50.280;19.026;2023-05-02T08:04:48;98417.53;;;21.86;41.18
40920;BME280;26652;50.280;19.026;2023-05-02T08:07:06;98429.47;;;21.82;40.18
40920;BME280;26652;50.280;19.026;2023-05-02T08:09:15;98433.63;;;22.35;42.27
40920;BME280;26652;50.280;19.026;2023-05-02T08:11:44;98434.06;;;22.90;39.68
40920;BME280;26652;50.280;19.026;2023-05-02T08:13:52;98426.78;;;22.76;39.48
40920;BME280;26652;50.280;19.026;2023-05-02T08:16:01;98428.31;;;22.77;39.66
40920;BME280;26652;50.280;19.026;2023-05-02T08:18:13;98441.03;;;22.69;38.81
40920;BME280;26652;50.280;19.026;2023-05-02T08:20:32;98430.25;;;22.35;40.54
40920;BME280;26652;50.280;19.026;2023-05-02T08:22:45;98426.16;;;22.49;39.82
40920;BME280;26652;50.280;19.026;2023-05-02T08:25:05;98426.69;;;22.46;39.22
40920;BME280;26652;50.280;19.026;2023-05-02T08:27:11;98428.59;;;22.13;39.79
40920;BME280;26652;50.280;19.026;2023-05-02T08:29:25;98434.22;;;22.00;40.36
40920;BME280;26652;50.280;19.026;2023-05-02T08:31:39;98433.25;;;22.06;39.35
40920;BME280;26652;50.280;19.026;2023-05-02T08:33:47;98433.16;;;22.48;39.61
40920;BME280;26652;50.280;19.026;2023-05-02T08:35:56;98426.81;;;22.97;38.27
40920;BME280;26652;50.280;19.026;2023-05-02T08:38:24;98436.44;;;23.16;39.95
40920;BME280;26652;50.280;19.026;2023-05-02T08:40:35;98442.41;;;23.27;37.30
40920;BME280;26652;50.280;19.026;2023-05-02T08:42:46;98446.28;;;22.79;38.73
40920;BME280;26652;50.280;19.026;2023-05-02T08:44:54;98446.22;;;22.69;37.85
40920;BME280;26652;50.280;19.026;2023-05-02T08:47:16;98449.09;;;22.15;39.44
40920;BME280;26652;50.280;19.026;2023-05-02T08:49:23;98443.97;;;22.25;40.76
40920;BME280;26652;50.280;19.026;2023-05-02T08:51:35;98440.88;;;22.33;40.93
40920;BME280;26652;50.280;19.026;2023-05-02T08:53:43;98447.31;;;22.88;40.53
40920;BME280;26652;50.280;19.026;2023-05-02T08:55:53;98450.19;;;22.87;38.61
40920;BME280;26652;50.280;19.026;2023-05-02T08:58:04;98451.41;;;22.69;39.15
40920;BME280;26652;50.280;19.026;2023-05-02T09:00:16;98445.22;;;22.90;39.24
40920;BME280;26652;50.280;19.026;2023-05-02T09:05:07;98444.81;;;22.41;39.24
40920;BME280;26652;50.280;19.026;2023-05-02T09:07:19;98439.13;;;22.44;39.35
40920;BME280;26652;50.280;19.026;2023-05-02T09:09:34;98451.78;;;21.83;39.50
40920;BME280;26652;50.280;19.026;2023-05-02T09:11:40;98447.25;;;21.68;40.99
40920;BME280;26652;50.280;19.026;2023-05-02T09:14:02;98439.25;;;21.38;40.98
40920;BME280;26652;50.280;19.026;2023-05-02T09:16:20;98447.00;;;21.11;41.91
40920;BME280;26652;50.280;19.026;2023-05-02T09:18:33;98446.97;;;21.06;41.68
40920;BME280;26652;50.280;19.026;2023-05-02T09:20:42;98447.44;;;21.03;43.54
40920;BME280;26652;50.280;19.026;2023-05-02T09:23:07;98438.75;;;21.14;41.58
40920;BME280;26652;50.280;19.026;2023-05-02T09:25:23;98442.34;;;21.35;42.45
40920;BME280;26652;50.280;19.026;2023-05-02T09:28:06;98443.69;;;21.42;42.00
40920;BME280;26652;50.280;19.026;2023-05-02T09:30:25;98437.44;;;21.38;42.63
40920;BME280;26652;50.280;19.026;2023-05-02T09:32:46;98443.25;;;21.50;42.94
40920;BME280;26652;50.280;19.026;2023-05-02T09:35:07;98448.78;;;21.32;42.67
40920;BME280;26652;50.280;19.026;2023-05-02T09:37:35;98455.63;;;21.43;43.55
40920;BME280;26652;50.280;19.026;2023-05-02T09:39:41;98455.16;;;21.51;42.91
40920;BME280;26652;50.280;19.026;2023-05-02T09:42:29;98456.13;;;21.77;43.42
40920;BME280;26652;50.280;19.026;2023-05-02T09:44:38;98451.13;;;22.08;42.24
40920;BME280;26652;50.280;19.026;2023-05-02T09:47:05;98450.22;;;22.29;41.25
40920;BME280;26652;50.280;19.026;2023-05-02T09:49:11;98457.12;;;21.71;42.06
40920;BME280;26652;50.280;19.026;2023-05-02T09:51:29;98447.06;;;21.16;43.06
40920;BME280;26652;50.280;19.026;2023-05-02T09:53:44;98456.88;;;20.87;43.39
40920;BME280;26652;50.280;19.026;2023-05-02T09:56:02;98451.16;;;20.85;44.36
40920;BME280;26652;50.280;19.026;2023-05-02T09:58:20;98458.50;;;20.93;43.84
40920;BME280;26652;50.280;19.026;2023-05-02T10:00:43;98456.19;;;21.50;43.36
40920;BME280;26652;50.280;19.026;2023-05-02T10:03:00;98454.72;;;22.02;43.33
40920;BME280;26652;50.280;19.026;2023-05-02T10:05:11;98445.53;;;21.79;42.29
40920;BME280;26652;50.280;19.026;2023-05-02T10:07:17;98454.63;;;21.49;43.53
40920;BME280;26652;50.280;19.026;2023-05-02T10:09:29;98461.75;;;21.64;43.46
40920;BME280;26652;50.280;19.026;2023-05-02T10:11:37;98480.97;;;21.73;45.95
40920;BME280;26652;50.280;19.026;2023-05-02T10:13:46;98482.09;;;21.82;46.84
40920;BME280;26652;50.280;19.026;2023-05-02T10:16:03;98473.91;;;21.64;46.73
40920;BME280;26652;50.280;19.026;2023-05-02T10:18:18;98478.88;;;21.70;47.01
40920;BME280;26652;50.280;19.026;2023-05-02T10:20:31;98472.03;;;21.54;47.51
40920;BME280;26652;50.280;19.026;2023-05-02T10:22:49;98469.84;;;21.41;47.28
40920;BME280;26652;50.280;19.026;2023-05-02T10:24:58;98467.75;;;21.38;48.74
40920;BME280;26652;50.280;19.026;2023-05-02T10:27:08;98477.31;;;21.37;48.13
40920;BME280;26652;50.280;19.026;2023-05-02T10:29:16;98486.06;;;21.31;48.50
40920;BME280;26652;50.280;19.026;2023-05-02T10:31:34;98478.44;;;21.19;48.38
40920;BME280;26652;50.280;19.026;2023-05-02T10:33:47;98477.31;;;21.10;48.62
40920;BME280;26652;50.280;19.026;2023-05-02T10:36:01;98478.84;;;20.84;48.29
40920;BME280;26652;50.280;19.026;2023-05-02T10:38:10;98487.78;;;20.72;50.17
40920;BME280;26652;50.280;19.026;2023-05-02T10:40:19;98483.53;;;20.87;49.70
40920;BME280;26652;50.280;19.026;2023-05-02T10:42:29;98487.06;;;21.03;48.87
40920;BME280;26652;50.280;19.026;2023-05-02T10:44:41;98486.44;;;21.18;48.10
40920;BME280;26652;50.280;19.026;2023-05-02T10:46:56;98481.00;;;21.19;48.00
40920;BME280;26652;50.280;19.026;2023-05-02T10:49:11;98477.72;;;21.24;49.54
40920;BME280;26652;50.280;19.026;2023-05-02T10:51:30;98483.06;;;21.17;48.78
40920;BME280;26652;50.280;19.026;2023-05-02T10:56:36;98490.13;;;21.00;48.61
40920;BME280;26652;50.280;19.026;2023-05-02T10:59:28;98486.09;;;21.09;50.09
40920;BME280;26652;50.280;19.026;2023-05-02T11:01:51;98484.59;;;20.92;49.82
40920;BME280;26652;50.280;19.026;2023-05-02T11:11:45;98504.41;;;20.81;49.36
40920;BME280;26652;50.280;19.026;2023-05-02T11:14:06;98502.28;;;20.73;51.00
40920;BME280;26652;50.280;19.026;2023-05-02T11:16:14;98507.22;;;21.01;51.34
40920;BME280;26652;50.280;19.026;2023-05-02T11:18:58;98502.69;;;21.13;50.33
40920;BME280;26652;50.280;19.026;2023-05-02T11:21:28;98508.25;;;21.22;49.12
40920;BME280;26652;50.280;19.026;2023-05-02T11:23:42;98502.78;;;20.97;48.81
40920;BME280;26652;50.280;19.026;2023-05-02T11:25:55;98502.06;;;21.01;49.67
40920;BME280;26652;50.280;19.026;2023-05-02T11:28:39;98506.63;;;20.94;49.03
40920;BME280;26652;50.280;19.026;2023-05-02T11:30:46;98507.66;;;20.93;49.95
40920;BME280;26652;50.280;19.026;2023-05-02T11:33:10;98514.34;;;20.89;52.28
40920;BME280;26652;50.280;19.026;2023-05-02T11:35:26;98518.84;;;20.99;50.67
40920;BME280;26652;50.280;19.026;2023-05-02T11:37:40;98526.44;;;20.83;50.96
40920;BME280;26652;50.280;19.026;2023-05-02T11:39:49;98528.81;;;20.63;50.49
40920;BME280;26652;50.280;19.026;2023-05-02T11:42:03;98526.50;;;20.45;50.95
40920;BME280;26652;50.280;19.026;2023-05-02T11:44:17;98522.91;;;20.46;52.18
40920;BME280;26652;50.280;19.026;2023-05-02T11:46:35;98524.09;;;20.21;56.30
40920;BME280;26652;50.280;19.026;2023-05-02T11:48:41;98528.78;;;20.41;58.93
40920;BME280;26652;50.280;19.026;2023-05-02T11:50:57;98528.00;;;20.41;66.14
40920;BME280;26652;50.280;19.026;2023-05-02T11:53:12;98530.41;;;20.47;57.91
40920;BME280;26652;50.280;19.026;2023-05-02T11:55:23;98528.03;;;20.63;57.02
40920;BME280;26652;50.280;19.026;2023-05-02T11:57:33;98538.84;;;20.81;63.16
40920;BME280;26652;50.280;19.026;2023-05-02T11:59:55;98531.78;;;20.99;57.67
40920;BME280;26652;50.280;19.026;2023-05-02T12:02:01;98537.31;;;21.07;55.26
40920;BME280;26652;50.280;19.026;2023-05-02T12:04:20;98537.87;;;20.87;55.37
40920;BME280;26652;50.280;19.026;2023-05-02T12:06:34;98532.63;;;20.82;55.78
40920;BME280;26652;50.280;19.026;2023-05-02T12:09:04;98529.56;;;21.07;54.75
40920;BME280;26652;50.280;19.026;2023-05-02T12:11:13;98542.00;;;21.32;57.51